Time;durP1;ratioP1;P1;durP2;ratioP2;P2;SDS_P1;SDS_P2;PMS_P1;PMS_P2;Temp;Humidity;BMP_temperature;BMP_pressure;BME280_temperature;BME280_humidity;BME280_pressure;Samples;Min_cycle;Max_cycle;Signal;HPM_P1;HPM_P2
2021/10/31 00:03:29;;;;;;;8.93;6.15;;;12.60;99.90;;;;;;6757454;88;20191;-77
2021/10/31 00:13:30;;;;;;;8.07;5.75;;;12.60;99.90;;;;;;6756294;88;20326;-78
2021/10/31 00:23:31;;;;;;;10.98;6.72;;;12.40;99.90;;;;;;6757566;88;20232;-77
2021/10/31 00:33:32;;;;;;;12.37;7.93;;;12.50;99.90;;;;;;6757265;88;20622;-77
2021/10/31 00:43:33;;;;;;;11.52;6.57;;;12.30;99.90;;;;;;6742458;77;20205;-77
2021/10/31 00:53:34;;;;;;;11.27;6.70;;;12.30;99.90;;;;;;6727298;88;20212;-77
2021/10/31 01:03:35;;;;;;;8.35;5.07;;;12.20;99.90;;;;;;6724112;88;20211;-77
2021/10/31 01:13:47;;;;;;;7.78;4.80;;;11.90;99.90;;;;;;6723252;88;20200;-77
2021/10/31 01:24:13;;;;;;;8.90;5.12;;;11.80;99.90;;;;;;6717492;88;20219;-77
2021/10/31 01:34:34;;;;;;;7.32;4.80;;;11.80;99.90;;;;;;6707963;88;20617;-78
2021/10/31 01:44:59;;;;;;;6.57;4.00;;;11.70;99.90;;;;;;6706044;88;20186;-78
2021/10/31 01:55:07;;;;;;;5.57;3.28;;;11.70;99.90;;;;;;6689434;88;20188;-77
2021/10/31 02:05:10;;;;;;;5.47;3.33;;;11.70;99.90;;;;;;6669684;89;20306;-78
2021/10/31 02:15:15;;;;;;;5.68;3.65;;;11.80;99.90;;;;;;6672223;89;20225;-77
2021/10/31 02:25:15;;;;;;;4.95;3.25;;;11.60;99.90;;;;;;6669808;89;20210;-77
2021/10/31 02:35:16;;;;;;;5.47;3.58;;;11.30;99.90;;;;;;6674625;88;20335;-77
2021/10/31 02:45:17;;;;;;;5.10;3.00;;;11.10;99.90;;;;;;6652710;89;20223;-77
2021/10/31 02:55:45;;;;;;;5.20;3.00;;;11.20;99.90;;;;;;6652798;89;20214;-78
2021/10/31 03:05:52;;;;;;;5.20;3.37;;;11.00;99.90;;;;;;6652627;89;21107;-77
2021/10/31 03:15:53;;;;;;;6.07;3.00;;;10.80;99.90;;;;;;6651454;89;20210;-78
2021/10/31 03:25:54;;;;;;;5.40;3.47;;;10.80;99.90;;;;;;6651767;89;20194;-77
2021/10/31 03:35:55;;;;;;;6.72;2.87;;;10.70;99.90;;;;;;6652353;89;20188;-77
2021/10/31 03:45:56;;;;;;;6.62;4.10;;;10.70;99.90;;;;;;6701888;88;20303;-78
2021/10/31 03:55:56;;;;;;;5.87;3.85;;;10.60;99.90;;;;;;6659985;88;20249;-78
2021/10/31 04:05:57;;;;;;;7.57;4.40;;;10.30;99.90;;;;;;6651511;89;20213;-78
2021/10/31 04:15:57;;;;;;;7.68;3.87;;;10.20;99.90;;;;;;6648416;89;20223;-77
2021/10/31 04:25:58;;;;;;;5.80;3.90;;;10.30;99.90;;;;;;6651950;89;20223;-78
2021/10/31 04:35:58;;;;;;;4.03;3.03;;;10.10;99.90;;;;;;6652740;89;20614;-77
2021/10/31 04:45:59;;;;;;;6.25;2.60;;;10.30;99.90;;;;;;6654472;89;20287;-78
2021/10/31 04:55:59;;;;;;;6.35;3.80;;;10.20;99.90;;;;;;6654352;89;20298;-78
2021/10/31 05:06:00;;;;;;;5.47;3.42;;;9.90;99.90;;;;;;6654157;89;20203;-77
2021/10/31 05:16:02;;;;;;;5.22;3.53;;;10.00;99.90;;;;;;6655944;89;20201;-77
2021/10/31 05:26:03;;;;;;;4.70;3.50;;;9.80;99.90;;;;;;6655096;89;20257;-77
2021/10/31 05:36:04;;;;;;;5.25;3.83;;;9.60;99.90;;;;;;6659863;89;20239;-77
2021/10/31 05:46:05;;;;;;;5.50;3.50;;;9.40;99.90;;;;;;6654274;88;20197;-77
2021/10/31 05:56:07;;;;;;;7.63;3.87;;;9.70;99.90;;;;;;6653818;88;20236;-78
2021/10/31 06:06:07;;;;;;;7.18;4.22;;;9.70;99.90;;;;;;6649676;89;20614;-77
2021/10/31 06:16:08;;;;;;;5.97;4.30;;;9.50;99.90;;;;;;6660039;88;20227;-78
2021/10/31 06:26:09;;;;;;;5.85;3.78;;;9.70;99.90;;;;;;6671886;89;20220;-77
2021/10/31 06:36:09;;;;;;;5.53;3.40;;;9.70;99.90;;;;;;6660688;88;20215;-77
2021/10/31 06:46:51;;;;;;;6.47;3.80;;;9.80;99.90;;;;;;6716909;77;20231;-79
2021/10/31 06:56:52;;;;;;;6.43;3.70;;;9.90;99.90;;;;;;6732401;88;20472;-78
2021/10/31 07:06:53;;;;;;;7.07;3.78;;;10.10;99.90;;;;;;6729420;88;20196;-78
2021/10/31 07:16:54;;;;;;;5.70;3.15;;;10.20;99.90;;;;;;6699688;88;20636;-78
2021/10/31 07:26:54;;;;;;;6.10;3.78;;;10.40;99.90;;;;;;6653540;88;20196;-77
2021/10/31 07:36:55;;;;;;;6.85;3.97;;;10.50;99.90;;;;;;6666913;88;20707;-79
2021/10/31 07:46:56;;;;;;;6.05;3.58;;;10.80;99.90;;;;;;6659220;88;20218;-80
2021/10/31 07:56:59;;;;;;;4.87;3.03;;;11.30;99.90;;;;;;6658215;88;20818;-80
2021/10/31 08:07:00;;;;;;;7.00;3.50;;;11.60;99.90;;;;;;6657823;89;20673;-79
2021/10/31 08:17:01;;;;;;;4.82;3.08;;;11.90;99.90;;;;;;6678178;88;20230;-79
2021/10/31 08:27:02;;;;;;;6.53;3.30;;;12.10;99.90;;;;;;6667937;88;20212;-80
2021/10/31 08:37:02;;;;;;;8.00;3.42;;;12.30;99.90;;;;;;6682859;88;20166;-81
2021/10/31 08:47:03;;;;;;;6.15;3.55;;;12.70;99.90;;;;;;6652282;88;20196;-82
2021/10/31 08:57:05;;;;;;;4.70;3.37;;;13.10;99.90;;;;;;6701414;88;20929;-80
2021/10/31 09:07:14;;;;;;;5.15;3.95;;;13.30;99.90;;;;;;6667217;88;20725;-79
2021/10/31 09:17:15;;;;;;;5.97;4.10;;;13.40;99.90;;;;;;6663935;89;20196;-80
2021/10/31 09:27:15;;;;;;;8.23;4.82;;;13.50;99.90;;;;;;6673231;89;20596;-80
2021/10/31 09:37:16;;;;;;;7.75;4.37;;;13.70;99.90;;;;;;6676405;89;20207;-80
2021/10/31 09:47:21;;;;;;;6.07;3.97;;;13.70;99.90;;;;;;6654558;89;20176;-81
2021/10/31 09:57:22;;;;;;;5.57;3.60;;;14.10;99.90;;;;;;6652700;89;20263;-79
2021/10/31 10:07:23;;;;;;;4.12;3.33;;;14.30;99.90;;;;;;6669225;88;20966;-79
2021/10/31 10:17:24;;;;;;;7.03;3.25;;;14.40;99.90;;;;;;6648894;88;20318;-81
2021/10/31 10:27:30;;;;;;;3.65;2.50;;;14.60;99.90;;;;;;6658297;88;20214;-81
2021/10/31 10:37:39;;;;;;;4.80;2.62;;;14.80;99.90;;;;;;6660039;88;20929;-82
2021/10/31 10:47:42;;;;;;;4.85;2.25;;;15.20;99.90;;;;;;6658324;89;20572;-81
2021/10/31 10:57:45;;;;;;;2.67;2.00;;;15.60;99.90;;;;;;6654563;89;20613;-82
2021/10/31 11:58:24;;;;;;;3.28;1.75;;;16.80;99.90;;;;;;6775182;87;20187;-79
2021/10/31 12:28:41;;;;;;;2.87;1.48;;;16.80;99.90;;;;;;6789640;87;20269;-80
2021/10/31 12:38:42;;;;;;;2.40;1.70;;;16.80;99.90;;;;;;6781426;87;20961;-80
2021/10/31 12:48:42;;;;;;;2.35;1.50;;;16.90;99.90;;;;;;6774420;87;20316;-78
2021/10/31 12:58:43;;;;;;;3.47;1.70;;;16.80;99.90;;;;;;6764426;87;20783;-80
2021/10/31 13:08:54;;;;;;;3.73;1.60;;;16.90;99.90;;;;;;6768919;87;20215;-80
2021/10/31 13:18:55;;;;;;;4.75;1.50;;;17.10;99.90;;;;;;6781563;87;20355;-80
2021/10/31 13:28:56;;;;;;;2.15;1.10;;;17.20;99.90;;;;;;6781049;87;20672;-80
2021/10/31 13:39:00;;;;;;;1.85;1.00;;;17.40;99.90;;;;;;6797837;87;20216;-83
2021/10/31 13:49:05;;;;;;;3.03;0.87;;;17.60;99.90;;;;;;6802185;87;20301;-80
2021/10/31 13:59:07;;;;;;;1.30;0.60;;;17.70;99.90;;;;;;6801942;87;20175;-82
2021/10/31 15:20:31;;;;;;;2.58;0.70;;;17.80;99.90;;;;;;6750864;88;20219;-82
2021/10/31 15:30:31;;;;;;;1.25;0.70;;;17.70;99.90;;;;;;6750805;88;20197;-82
2021/10/31 15:50:36;;;;;;;2.95;0.60;;;17.80;99.90;;;;;;6898457;76;20157;-83
2021/10/31 16:20:46;;;;;;;2.10;0.90;;;17.60;99.90;;;;;;6745648;88;20389;-82
2021/10/31 16:30:48;;;;;;;1.95;0.77;;;17.60;99.90;;;;;;6722096;88;20135;-81
2021/10/31 16:40:48;;;;;;;2.10;0.90;;;17.50;99.90;;;;;;6732794;88;20657;-80
2021/10/31 16:50:50;;;;;;;4.62;0.80;;;17.50;99.90;;;;;;6731694;88;20269;-81
2021/10/31 17:00:51;;;;;;;1.48;0.70;;;17.60;99.90;;;;;;6710980;88;20198;-79
2021/10/31 17:10:57;;;;;;;4.00;0.90;;;17.50;99.90;;;;;;6729065;88;20247;-79
2021/10/31 17:20:58;;;;;;;1.70;0.80;;;17.50;99.90;;;;;;6744946;88;20204;-78
2021/10/31 17:30:59;;;;;;;2.67;1.42;;;17.50;99.90;;;;;;6753978;88;20294;-81
2021/10/31 17:41:00;;;;;;;1.90;1.30;;;17.30;99.90;;;;;;6734100;88;20212;-79
2021/10/31 18:01:04;;;;;;;2.17;1.30;;;17.20;99.90;;;;;;6754550;88;20261;-79
2021/10/31 18:11:05;;;;;;;2.97;1.27;;;17.20;99.90;;;;;;6764093;88;20189;-78
2021/10/31 18:21:05;;;;;;;2.33;1.25;;;17.20;99.90;;;;;;6757568;88;20687;-78
2021/10/31 18:31:06;;;;;;;3.15;1.45;;;17.10;99.90;;;;;;6759299;88;20213;-79
2021/10/31 18:41:07;;;;;;;3.90;1.40;;;17.10;99.90;;;;;;6756622;88;20670;-78
2021/10/31 18:51:07;;;;;;;2.37;1.50;;;17.00;99.90;;;;;;6764678;87;20853;-78
2021/10/31 19:01:08;;;;;;;2.47;1.37;;;17.00;99.90;;;;;;6770054;88;20560;-82
2021/10/31 19:11:08;;;;;;;2.90;1.40;;;17.00;99.90;;;;;;6773577;88;20239;-78
2021/10/31 19:21:13;;;;;;;1.87;1.10;;;17.10;99.90;;;;;;6762403;88;20222;-80
2021/10/31 19:31:17;;;;;;;2.33;1.37;;;17.00;99.90;;;;;;6761266;88;20723;-78
2021/10/31 19:41:20;;;;;;;1.80;1.10;;;17.20;99.90;;;;;;6756425;88;20195;-79
2021/10/31 19:51:21;;;;;;;1.87;1.08;;;17.10;99.90;;;;;;6755877;88;21155;-79
2021/10/31 20:01:21;;;;;;;2.53;1.12;;;17.10;99.90;;;;;;6759098;88;20176;-80
2021/10/31 20:11:24;;;;;;;1.90;1.10;;;16.80;99.90;;;;;;6766185;88;20684;-81
2021/10/31 20:21:25;;;;;;;5.65;0.70;;;16.10;99.90;;;;;;6777491;87;20219;-80
2021/10/31 20:31:25;;;;;;;5.30;0.70;;;13.00;99.90;;;;;;6766173;88;20196;-79
2021/10/31 20:41:28;;;;;;;7.20;0.88;;;11.80;99.90;;;;;;6763699;88;20292;-78
2021/10/31 20:51:28;;;;;;;7.30;0.95;;;11.20;99.90;;;;;;6762220;87;20266;-78
2021/10/31 21:01:29;;;;;;;4.60;1.00;;;10.90;99.90;;;;;;6754381;88;20221;-79
2021/10/31 21:11:30;;;;;;;3.08;0.93;;;11.00;99.90;;;;;;6747354;77;20313;-77
2021/10/31 21:21:31;;;;;;;4.70;1.00;;;11.20;99.90;;;;;;6750289;87;20200;-75
2021/10/31 21:31:31;;;;;;;8.15;1.23;;;11.40;99.90;;;;;;6764153;87;20764;-74
2021/10/31 21:41:35;;;;;;;7.47;0.90;;;11.50;99.90;;;;;;6762767;87;20627;-75
2021/10/31 21:51:36;;;;;;;7.97;1.48;;;11.30;99.90;;;;;;6761598;87;20206;-74
2021/10/31 22:01:37;;;;;;;5.85;1.42;;;11.30;99.90;;;;;;6765617;87;20331;-75
2021/10/31 22:11:38;;;;;;;4.12;1.48;;;11.20;99.90;;;;;;6765241;87;20301;-75
2021/10/31 22:21:38;;;;;;;6.95;1.25;;;11.10;99.90;;;;;;6765323;87;20304;-75
2021/10/31 22:31:39;;;;;;;6.33;1.80;;;11.10;99.90;;;;;;6764893;87;20345;-75
2021/10/31 22:41:40;;;;;;;7.62;1.48;;;11.10;99.90;;;;;;6765256;87;20543;-74
2021/10/31 22:51:41;;;;;;;7.47;1.10;;;11.30;99.90;;;;;;6765485;87;20226;-74
2021/10/31 23:01:42;;;;;;;11.73;1.50;;;11.50;99.90;;;;;;6765322;87;20195;-75
2021/10/31 23:11:42;;;;;;;8.82;1.20;;;11.30;99.90;;;;;;6764680;87;20345;-74
2021/10/31 23:21:44;;;;;;;9.90;1.15;;;11.20;99.90;;;;;;6765265;87;20224;-74
2021/10/31 23:31:44;;;;;;;7.53;1.20;;;11.20;99.90;;;;;;6765597;87;20211;-76
2021/10/31 23:41:45;;;;;;;6.68;1.00;;;11.10;99.90;;;;;;6762842;87;20212;-77
2021/10/31 23:51:45;;;;;;;9.48;1.75;;;11.10;99.90;;;;;;6763503;87;20316;-79
